Time;durP1;ratioP1;P1;durP2;ratioP2;P2;SDS_P1;SDS_P2;PMS_P1;PMS_P2;Temp;Humidity;BMP_temperature;BMP_pressure;BME280_temperature;BME280_humidity;BME280_pressure;Samples;Min_cycle;Max_cycle;Signal;HPM_P1;HPM_P2
2023/03/14 00:00:12;;;;;;;3.38;2.30;;;5.60;58.70;;;;;;5002647;28;20041;-82
2023/03/14 00:02:39;;;;;;;5.30;2.10;;;5.60;58.60;;;;;;5002428;28;20053;-81
2023/03/14 00:05:08;;;;;;;3.70;2.00;;;5.60;58.60;;;;;;5005658;28;20144;-81
2023/03/14 00:07:36;;;;;;;3.30;2.33;;;5.60;58.60;;;;;;4991277;28;20034;-80
2023/03/14 00:10:07;;;;;;;4.32;2.30;;;5.60;58.60;;;;;;5019951;28;20029;-81
2023/03/14 00:12:33;;;;;;;3.03;1.92;;;5.60;58.60;;;;;;5006099;28;20124;-81
2023/03/14 00:15:03;;;;;;;2.50;1.73;;;5.60;58.60;;;;;;4988415;28;20057;-80
2023/03/14 00:17:30;;;;;;;4.47;2.40;;;5.60;58.60;;;;;;5003392;28;20140;-80
2023/03/14 00:19:56;;;;;;;4.20;2.33;;;5.60;58.60;;;;;;5008618;28;20034;-80
2023/03/14 00:22:22;;;;;;;3.00;1.70;;;5.50;58.50;;;;;;5003729;28;20398;-80
2023/03/14 00:24:48;;;;;;;3.15;2.10;;;5.50;58.50;;;;;;5005422;28;20061;-80
2023/03/14 00:27:14;;;;;;;4.80;2.20;;;5.50;58.50;;;;;;4999895;28;20094;-81
2023/03/14 00:29:42;;;;;;;4.22;2.33;;;5.50;58.50;;;;;;4975641;28;20026;-80
2023/03/14 00:32:08;;;;;;;2.15;1.90;;;5.50;58.50;;;;;;5021751;28;20483;-79
2023/03/14 00:34:33;;;;;;;3.05;2.15;;;5.50;58.50;;;;;;4994222;28;20071;-80
2023/03/14 00:37:00;;;;;;;4.05;1.70;;;5.50;58.50;;;;;;4988813;28;20033;-80
2023/03/14 00:39:26;;;;;;;4.20;2.15;;;5.50;58.50;;;;;;5020625;28;20317;-81
2023/03/14 00:41:52;;;;;;;2.67;1.85;;;5.50;58.50;;;;;;5018915;28;20488;-80
2023/03/14 00:44:17;;;;;;;3.05;1.98;;;5.50;58.50;;;;;;5020123;28;20038;-80
2023/03/14 00:46:43;;;;;;;2.58;1.75;;;5.50;58.60;;;;;;4991562;28;20418;-81
2023/03/14 00:49:09;;;;;;;4.45;1.80;;;5.50;58.60;;;;;;4976023;28;20042;-81
2023/03/14 00:51:35;;;;;;;2.03;1.60;;;5.50;58.60;;;;;;4976041;28;20034;-81
2023/03/14 00:54:01;;;;;;;2.05;1.50;;;5.40;58.60;;;;;;4994365;28;20029;-81
2023/03/14 00:56:27;;;;;;;2.00;1.63;;;5.50;58.60;;;;;;5024315;28;20044;-81
2023/03/14 00:58:55;;;;;;;3.13;1.88;;;5.40;58.60;;;;;;5013045;28;20080;-81
2023/03/14 01:01:21;;;;;;;3.20;1.60;;;5.50;58.70;;;;;;5001920;28;20092;-81
2023/03/14 01:03:50;;;;;;;2.28;1.67;;;5.40;58.70;;;;;;5003606;28;20033;-80
2023/03/14 01:06:18;;;;;;;3.88;1.67;;;5.50;58.80;;;;;;5000044;28;20040;-81
2023/03/14 01:08:45;;;;;;;2.80;1.45;;;5.40;58.80;;;;;;5003413;28;20508;-81
2023/03/14 01:11:14;;;;;;;2.53;1.58;;;5.40;59.40;;;;;;4987711;28;20128;-80
2023/03/14 01:13:40;;;;;;;2.72;1.67;;;5.40;58.90;;;;;;4977506;28;20041;-80
2023/03/14 01:16:08;;;;;;;2.00;1.52;;;5.40;58.90;;;;;;4975402;28;20045;-81
2023/03/14 01:18:38;;;;;;;1.17;1.08;;;5.40;58.90;;;;;;4989338;28;20040;-81
2023/03/14 01:21:13;;;;;;;1.85;1.25;;;5.40;59.00;;;;;;5019645;28;20041;-80
2023/03/14 01:23:40;;;;;;;2.33;1.42;;;5.40;59.10;;;;;;4999239;28;20524;-80
2023/03/14 01:26:10;;;;;;;3.08;1.25;;;5.40;59.30;;;;;;5000489;28;20416;-80
2023/03/14 01:28:37;;;;;;;2.65;1.20;;;5.40;59.40;;;;;;4991260;28;20468;-80
2023/03/14 01:31:05;;;;;;;4.00;1.60;;;5.40;59.70;;;;;;4975457;28;20511;-79
2023/03/14 01:33:31;;;;;;;1.63;1.40;;;5.40;59.80;;;;;;4992519;28;20049;-80
2023/03/14 01:35:57;;;;;;;1.55;1.20;;;5.40;60.00;;;;;;5006546;28;20048;-80
2023/03/14 01:38:23;;;;;;;1.70;1.27;;;5.40;60.20;;;;;;5005715;28;20030;-80
2023/03/14 01:40:49;;;;;;;1.67;1.23;;;5.40;60.40;;;;;;5006154;28;20534;-79
2023/03/14 01:43:18;;;;;;;3.58;1.92;;;5.40;60.70;;;;;;5004128;28;20029;-80
2023/03/14 01:46:06;;;;;;;2.33;1.70;;;5.40;60.90;;;;;;4988216;28;20091;-80
2023/03/14 01:48:41;;;;;;;5.05;1.60;;;5.40;61.30;;;;;;4991801;28;20048;-79
2023/03/14 01:51:12;;;;;;;2.00;1.27;;;5.40;61.50;;;;;;5009491;28;20065;-80
2023/03/14 01:53:41;;;;;;;5.28;1.63;;;5.40;61.80;;;;;;5007348;28;20122;-80
2023/03/14 01:56:09;;;;;;;2.30;1.40;;;5.40;61.90;;;;;;4987301;28;20038;-80
2023/03/14 01:58:36;;;;;;;1.83;1.13;;;5.40;62.20;;;;;;5006761;28;20413;-80
2023/03/14 02:01:03;;;;;;;1.98;1.45;;;5.40;62.40;;;;;;4973282;28;20579;-79
2023/03/14 02:03:35;;;;;;;2.00;1.10;;;5.40;62.60;;;;;;4997326;28;20041;-79
2023/03/14 02:06:06;;;;;;;2.35;1.50;;;5.40;62.60;;;;;;4992207;28;20211;-78
2023/03/14 02:08:35;;;;;;;1.25;1.15;;;5.40;62.80;;;;;;5006320;28;20069;-80
2023/03/14 02:11:04;;;;;;;4.28;1.58;;;5.40;62.90;;;;;;5007724;28;20045;-79
2023/03/14 02:13:49;;;;;;;3.92;1.77;;;5.40;63.10;;;;;;5005861;28;20516;-80
2023/03/14 02:16:41;;;;;;;2.80;1.52;;;5.50;63.40;;;;;;4952067;28;20053;-80
2023/03/14 02:19:50;;;;;;;3.53;1.80;;;5.40;63.50;;;;;;4920995;29;20530;-79
2023/03/14 02:22:40;;;;;;;2.72;1.48;;;5.40;63.70;;;;;;4918735;29;20044;-80
2023/03/14 02:25:20;;;;;;;2.65;1.88;;;5.50;63.90;;;;;;4906813;29;20039;-81
2023/03/14 02:27:47;;;;;;;3.67;1.65;;;5.40;63.90;;;;;;4920674;29;20039;-83
2023/03/14 02:30:20;;;;;;;3.17;1.70;;;5.50;64.10;;;;;;4915446;29;20032;-81
2023/03/14 02:33:02;;;;;;;2.80;1.75;;;5.50;64.10;;;;;;4923160;29;20028;-83
2023/03/14 02:35:41;;;;;;;2.80;1.52;;;5.50;64.20;;;;;;4918595;29;20044;-82
2023/03/14 02:38:30;;;;;;;3.13;1.73;;;5.50;64.30;;;;;;4916179;29;20031;-81
2023/03/14 02:40:56;;;;;;;3.80;2.00;;;5.50;64.40;;;;;;4919979;29;20191;-81
2023/03/14 02:43:22;;;;;;;2.95;2.00;;;5.50;64.60;;;;;;4921263;29;20040;-81
2023/03/14 02:45:54;;;;;;;3.90;2.28;;;5.50;64.90;;;;;;4920178;29;20083;-80
2023/03/14 02:48:26;;;;;;;3.45;2.10;;;5.50;65.00;;;;;;4923470;29;20043;-81
2023/03/14 02:50:56;;;;;;;3.70;1.95;;;5.50;65.10;;;;;;4921841;29;20511;-81
2023/03/14 02:53:31;;;;;;;4.25;2.38;;;5.50;65.50;;;;;;4943904;28;20410;-80
2023/03/14 02:56:01;;;;;;;2.72;1.83;;;5.50;65.70;;;;;;4968723;28;20137;-80
2023/03/14 02:58:30;;;;;;;2.15;1.90;;;5.50;66.00;;;;;;5008218;28;20087;-80
2023/03/14 03:01:04;;;;;;;2.63;1.88;;;5.50;66.10;;;;;;4999779;28;20120;-79
2023/03/14 03:03:30;;;;;;;2.63;2.10;;;5.50;66.40;;;;;;4997663;28;20068;-79
2023/03/14 03:05:57;;;;;;;3.83;2.22;;;5.50;66.60;;;;;;4993179;28;20456;-79
2023/03/14 03:08:26;;;;;;;2.35;2.08;;;5.60;66.80;;;;;;4993194;28;20523;-79
2023/03/14 03:10:53;;;;;;;3.83;2.17;;;5.60;66.90;;;;;;4975787;28;20128;-80
2023/03/14 03:13:19;;;;;;;2.45;2.25;;;5.60;66.90;;;;;;5023777;28;20141;-80
2023/03/14 03:15:49;;;;;;;4.90;2.20;;;5.60;67.00;;;;;;4989626;28;20049;-81
2023/03/14 03:18:15;;;;;;;3.80;2.15;;;5.60;67.10;;;;;;4990969;28;20535;-80
2023/03/14 03:20:42;;;;;;;5.18;2.25;;;5.60;67.20;;;;;;5002998;28;20065;-81
2023/03/14 03:23:08;;;;;;;3.28;2.22;;;5.60;67.20;;;;;;5022259;28;20464;-80
2023/03/14 03:25:38;;;;;;;2.40;2.20;;;5.60;67.30;;;;;;4987303;28;20046;-81
2023/03/14 03:28:07;;;;;;;4.10;2.42;;;5.60;67.40;;;;;;4987851;28;20030;-77
2023/03/14 03:30:40;;;;;;;4.30;2.40;;;5.60;67.50;;;;;;5007117;28;20186;-78
2023/03/14 03:33:06;;;;;;;3.72;2.30;;;5.70;67.60;;;;;;5006909;28;20033;-79
2023/03/14 03:35:32;;;;;;;3.20;2.17;;;5.60;67.60;;;;;;5007382;28;20095;-78
2023/03/14 03:37:59;;;;;;;4.30;2.20;;;5.60;67.60;;;;;;5006574;28;20041;-81
2023/03/14 03:40:25;;;;;;;4.20;2.40;;;5.70;67.70;;;;;;5022376;28;20037;-78
2023/03/14 03:42:51;;;;;;;2.85;2.30;;;5.70;67.70;;;;;;5005557;28;20033;-79
2023/03/14 03:45:17;;;;;;;2.90;2.60;;;5.70;67.70;;;;;;5013241;28;20485;-79
2023/03/14 03:47:50;;;;;;;4.93;2.50;;;5.70;67.80;;;;;;5011043;28;20041;-79
2023/03/14 03:50:16;;;;;;;3.90;2.60;;;5.70;67.90;;;;;;5007460;28;20034;-77
2023/03/14 03:52:42;;;;;;;4.30;2.50;;;5.70;68.00;;;;;;5020526;28;20033;-82
2023/03/14 03:55:08;;;;;;;3.58;2.10;;;5.80;68.10;;;;;;5018561;28;20045;-80
2023/03/14 03:57:34;;;;;;;4.07;2.67;;;5.70;68.10;;;;;;5007648;28;20087;-79
2023/03/14 04:00:00;;;;;;;3.75;2.55;;;5.80;68.20;;;;;;4988517;28;20398;-80
2023/03/14 04:02:27;;;;;;;4.47;2.50;;;5.80;68.20;;;;;;5009971;28;20539;-80
2023/03/14 04:04:53;;;;;;;3.97;2.83;;;5.80;68.20;;;;;;4994062;28;20041;-77
2023/03/14 04:07:19;;;;;;;4.93;2.80;;;5.80;68.30;;;;;;4994224;28;20515;-79
2023/03/14 04:09:46;;;;;;;4.47;2.97;;;5.80;68.30;;;;;;5008077;28;20041;-87
2023/03/14 04:12:44;;;;;;;7.20;3.30;;;5.80;68.40;;;;;;5002265;28;20048;-88
2023/03/14 04:15:16;;;;;;;4.05;2.65;;;5.80;68.50;;;;;;5009071;28;20051;-86
2023/03/14 04:17:46;;;;;;;5.05;3.05;;;5.80;68.60;;;;;;5006864;28;20029;-82
2023/03/14 04:20:14;;;;;;;4.72;2.72;;;5.90;68.70;;;;;;4989780;28;20037;-75
2023/03/14 04:22:40;;;;;;;4.10;2.38;;;5.80;69.20;;;;;;5006340;28;20453;-79
2023/03/14 04:25:07;;;;;;;5.30;2.60;;;5.90;72.90;;;;;;5003967;28;20033;-76
2023/03/14 04:27:37;;;;;;;4.97;2.53;;;6.00;72.20;;;;;;5006842;28;20045;-77
2023/03/14 04:30:10;;;;;;;3.95;3.05;;;6.00;72.00;;;;;;5004354;28;20045;-76
2023/03/14 04:33:14;;;;;;;5.35;3.38;;;6.00;71.60;;;;;;5009026;28;20061;-78
2023/03/14 04:35:46;;;;;;;4.93;2.90;;;6.10;71.30;;;;;;5019592;28;20034;-76
2023/03/14 04:38:14;;;;;;;4.07;2.88;;;6.10;71.20;;;;;;5005809;28;20053;-76
2023/03/14 04:40:44;;;;;;;7.60;3.75;;;6.10;71.40;;;;;;4993900;28;20542;-76
2023/03/14 04:43:12;;;;;;;5.80;3.58;;;6.20;71.80;;;;;;4990689;28;20041;-76
2023/03/14 04:45:44;;;;;;;7.07;3.40;;;6.20;72.00;;;;;;5008339;28;20514;-77
2023/03/14 04:48:11;;;;;;;7.05;2.80;;;6.20;72.70;;;;;;4990562;28;20029;-76
2023/03/14 04:50:38;;;;;;;7.00;3.50;;;6.20;78.30;;;;;;5003461;28;20133;-77
2023/03/14 04:53:05;;;;;;;7.32;3.78;;;6.30;82.90;;;;;;4985489;28;20038;-76
2023/03/14 04:55:34;;;;;;;10.48;3.83;;;6.40;84.00;;;;;;4972138;28;20067;-76
2023/03/14 04:58:00;;;;;;;6.25;2.90;;;6.50;84.80;;;;;;4984783;28;20041;-75
2023/03/14 05:00:26;;;;;;;6.65;2.92;;;6.60;86.00;;;;;;4999916;28;20477;-76
2023/03/14 05:03:18;;;;;;;7.30;3.60;;;6.70;86.10;;;;;;5001724;28;20063;-75
2023/03/14 05:06:13;;;;;;;8.25;2.90;;;6.90;84.80;;;;;;4944162;28;20086;-77
2023/03/14 05:09:04;;;;;;;8.48;3.15;;;7.00;85.90;;;;;;4930101;29;20067;-75
2023/03/14 05:11:49;;;;;;;7.18;3.28;;;7.10;84.70;;;;;;4944240;29;20434;-75
2023/03/14 05:14:34;;;;;;;5.28;3.00;;;7.30;84.60;;;;;;4944790;29;20840;-75
2023/03/14 05:17:20;;;;;;;;;;;7.40;84.50;;;;;;4915610;29;20031;-76
2023/03/14 05:19:46;;;;;;;5.57;2.95;;;7.50;82.50;;;;;;4945290;28;19926;-75
2023/03/14 05:22:28;;;;;;;7.20;3.08;;;7.60;82.80;;;;;;4945028;28;20039;-76
2023/03/14 05:25:13;;;;;;;7.40;2.60;;;7.80;82.70;;;;;;4928788;29;20604;-76
2023/03/14 05:27:57;;;;;;;9.13;2.70;;;7.90;82.10;;;;;;4944830;28;20545;-75
2023/03/14 05:30:46;;;;;;;4.28;2.53;;;8.00;81.60;;;;;;4943440;28;20447;-76
2023/03/14 05:33:43;;;;;;;5.47;2.60;;;8.00;80.30;;;;;;4944623;28;20075;-76
2023/03/14 05:36:35;;;;;;;4.82;2.60;;;8.20;80.00;;;;;;4945106;28;20094;-74
2023/03/14 05:39:30;;;;;;;3.25;2.20;;;8.30;79.10;;;;;;4943612;29;20050;-74
2023/03/14 05:42:11;;;;;;;6.53;2.60;;;8.40;79.00;;;;;;4949758;28;20428;-75
2023/03/14 05:44:54;;;;;;;5.32;2.08;;;8.50;79.00;;;;;;5022258;28;20052;-80
2023/03/14 05:47:49;;;;;;;5.03;2.47;;;8.60;79.90;;;;;;4976457;28;20038;-76
2023/03/14 05:50:22;;;;;;;3.45;2.45;;;8.70;78.30;;;;;;5004069;28;20351;-75
2023/03/14 05:53:00;;;;;;;2.85;2.15;;;8.80;76.00;;;;;;5022144;28;20033;-77
2023/03/14 05:55:46;;;;;;;3.42;2.40;;;8.80;75.20;;;;;;5022306;28;20041;-76
2023/03/14 05:58:33;;;;;;;5.78;2.53;;;8.80;73.80;;;;;;5000499;28;20073;-75
2023/03/14 06:01:19;;;;;;;5.40;3.08;;;8.90;73.20;;;;;;5004625;28;20053;-76
2023/03/14 06:04:03;;;;;;;8.68;5.03;;;8.90;72.60;;;;;;5003667;28;20504;-75
2023/03/14 06:06:29;;;;;;;11.82;6.68;;;8.90;72.30;;;;;;4988783;28;20100;-76
2023/03/14 06:08:55;;;;;;;12.75;7.10;;;8.80;72.50;;;;;;5006837;28;20413;-75
2023/03/14 06:11:21;;;;;;;12.35;7.53;;;8.80;72.40;;;;;;5004805;28;20059;-78
2023/03/14 06:13:47;;;;;;;14.18;9.27;;;8.80;72.30;;;;;;5002924;28;20496;-82
2023/03/14 06:16:14;;;;;;;16.38;10.85;;;8.80;72.00;;;;;;4973954;28;20046;-78
2023/03/14 06:18:40;;;;;;;14.65;10.43;;;8.80;72.00;;;;;;5002253;28;20101;-80
2023/03/14 06:21:08;;;;;;;15.07;10.68;;;8.80;72.00;;;;;;5004755;28;20034;-79
2023/03/14 06:23:35;;;;;;;13.02;9.75;;;8.80;72.50;;;;;;4990586;28;20048;-79
2023/03/14 06:26:04;;;;;;;13.38;9.23;;;8.80;72.00;;;;;;5013080;28;20034;-78
2023/03/14 06:28:30;;;;;;;13.75;9.00;;;8.80;72.00;;;;;;5001317;28;20060;-79
2023/03/14 06:31:00;;;;;;;11.93;9.30;;;8.80;71.80;;;;;;4999807;28;20408;-80
2023/03/14 06:33:28;;;;;;;12.57;8.25;;;8.80;71.80;;;;;;4988437;28;20041;-83
2023/03/14 06:35:54;;;;;;;11.48;7.22;;;8.80;71.60;;;;;;5007187;28;20033;-80
2023/03/14 06:38:20;;;;;;;10.57;7.00;;;8.80;71.40;;;;;;5022279;28;20504;-85
2023/03/14 06:40:47;;;;;;;9.52;7.07;;;8.80;71.30;;;;;;4993374;28;20832;-79
2023/03/14 06:43:18;;;;;;;10.95;6.50;;;8.70;71.00;;;;;;5007333;28;20042;-83
2023/03/14 06:45:46;;;;;;;9.77;6.97;;;8.80;71.10;;;;;;5005597;28;20056;-87
2023/03/14 06:48:12;;;;;;;13.38;8.68;;;8.80;71.10;;;;;;4990355;28;20036;-87
2023/03/14 06:50:44;;;;;;;13.80;8.13;;;8.80;71.30;;;;;;5007822;28;20403;-82
2023/03/14 06:53:10;;;;;;;13.30;8.90;;;8.80;71.10;;;;;;5007132;28;20034;-84
2023/03/14 06:55:40;;;;;;;17.17;8.75;;;8.70;71.00;;;;;;5005398;28;20088;-89
2023/03/14 06:58:07;;;;;;;14.32;8.60;;;8.70;71.10;;;;;;5008969;28;20038;-88
2023/03/14 07:00:39;;;;;;;15.07;8.73;;;8.80;71.30;;;;;;5011506;28;20037;-80
2023/03/14 07:03:05;;;;;;;18.92;7.97;;;8.70;71.30;;;;;;5008737;28;20782;-81
2023/03/14 07:05:35;;;;;;;12.32;8.00;;;8.70;71.40;;;;;;5009324;28;20046;-74
2023/03/14 07:08:01;;;;;;;9.43;6.90;;;8.70;71.60;;;;;;5010074;28;20099;-74
2023/03/14 07:10:28;;;;;;;7.95;5.72;;;8.70;72.40;;;;;;5007595;28;20044;-74
2023/03/14 07:12:54;;;;;;;8.13;4.72;;;8.70;71.50;;;;;;5005621;28;20046;-73
2023/03/14 07:15:22;;;;;;;7.03;3.85;;;8.70;70.30;;;;;;5003869;28;20458;-74
2023/03/14 07:17:52;;;;;;;5.85;4.00;;;8.70;69.20;;;;;;5010136;28;20060;-73
2023/03/14 07:20:21;;;;;;;6.32;3.65;;;8.60;68.60;;;;;;5007550;28;20467;-75
2023/03/14 07:22:49;;;;;;;5.82;3.15;;;8.60;68.30;;;;;;5007639;28;20409;-77
2023/03/14 07:25:16;;;;;;;8.77;4.40;;;8.50;67.60;;;;;;4991941;28;20124;-76
2023/03/14 07:27:49;;;;;;;8.45;3.95;;;8.50;68.90;;;;;;5004339;28;20033;-75
2023/03/14 07:30:15;;;;;;;5.30;3.60;;;8.50;68.90;;;;;;5019385;28;20073;-75
2023/03/14 07:32:41;;;;;;;5.22;3.85;;;8.50;68.50;;;;;;5018750;28;20038;-75
2023/03/14 07:35:08;;;;;;;6.53;3.95;;;8.50;68.70;;;;;;5001768;28;20065;-75
2023/03/14 07:37:37;;;;;;;5.65;4.07;;;8.50;67.90;;;;;;5000383;28;20036;-75
2023/03/14 07:40:08;;;;;;;6.10;4.13;;;8.40;67.70;;;;;;4986654;28;20091;-77
2023/03/14 07:42:35;;;;;;;6.57;4.63;;;8.40;67.30;;;;;;5000552;28;20420;-76
2023/03/14 07:45:21;;;;;;;9.43;4.75;;;8.40;67.30;;;;;;5017065;28;20416;-76
2023/03/14 07:47:47;;;;;;;6.60;4.57;;;8.40;67.30;;;;;;5018181;28;20029;-76
2023/03/14 07:50:14;;;;;;;8.90;4.07;;;8.40;67.20;;;;;;5017302;28;20099;-75
2023/03/14 07:52:39;;;;;;;8.15;4.28;;;8.40;67.10;;;;;;5016720;28;20052;-76
2023/03/14 07:55:06;;;;;;;7.35;3.63;;;8.30;66.90;;;;;;5017411;28;20045;-75
2023/03/14 07:57:32;;;;;;;6.55;3.70;;;8.30;66.90;;;;;;5017927;28;20044;-75
2023/03/14 07:59:58;;;;;;;5.65;3.60;;;8.30;67.30;;;;;;5016883;28;20060;-76
2023/03/14 08:02:24;;;;;;;7.85;4.07;;;8.30;67.20;;;;;;5019175;28;20026;-74
2023/03/14 08:04:50;;;;;;;5.38;3.20;;;8.30;67.30;;;;;;5016385;28;20531;-75
2023/03/14 08:07:16;;;;;;;6.03;3.33;;;8.30;67.30;;;;;;5005420;28;20424;-74
2023/03/14 08:09:42;;;;;;;5.07;3.05;;;8.30;67.30;;;;;;5016687;28;20034;-74
2023/03/14 08:12:08;;;;;;;6.43;3.50;;;8.30;67.10;;;;;;5016322;28;20053;-74
2023/03/14 08:14:34;;;;;;;5.03;3.13;;;8.20;66.70;;;;;;5015635;28;20044;-74
2023/03/14 08:17:00;;;;;;;5.50;3.08;;;8.20;66.60;;;;;;5016392;28;20030;-74
2023/03/14 08:19:26;;;;;;;3.90;2.78;;;8.20;66.60;;;;;;5017427;28;20407;-76
2023/03/14 08:21:52;;;;;;;4.85;3.45;;;8.20;66.50;;;;;;5017073;28;20109;-76
2023/03/14 08:24:18;;;;;;;5.47;2.85;;;8.20;66.40;;;;;;5015908;28;20030;-74
2023/03/14 08:26:44;;;;;;;6.22;3.47;;;8.20;67.00;;;;;;4989897;28;20112;-75
2023/03/14 08:29:12;;;;;;;5.65;3.50;;;8.20;66.40;;;;;;5016680;28;20397;-75
2023/03/14 08:31:38;;;;;;;6.70;3.42;;;8.20;68.40;;;;;;5016623;28;20048;-76
2023/03/14 08:34:06;;;;;;;3.97;3.13;;;8.20;69.30;;;;;;5002423;28;20037;-76
2023/03/14 08:36:33;;;;;;;9.48;4.03;;;8.20;69.40;;;;;;5015498;28;20527;-76
2023/03/14 08:38:59;;;;;;;4.95;3.45;;;8.20;69.80;;;;;;5015790;28;20099;-75
2023/03/14 08:41:25;;;;;;;5.97;3.30;;;8.20;69.40;;;;;;5016677;28;20046;-75
2023/03/14 08:43:51;;;;;;;7.20;3.40;;;8.20;69.00;;;;;;5014766;28;20042;-75
2023/03/14 08:46:17;;;;;;;5.80;2.72;;;8.20;69.00;;;;;;5015975;28;20044;-75
2023/03/14 08:48:43;;;;;;;3.55;2.80;;;8.20;68.60;;;;;;5016352;28;20072;-75
2023/03/14 08:51:12;;;;;;;5.28;3.03;;;8.20;68.40;;;;;;5005205;28;20099;-75
2023/03/14 08:53:38;;;;;;;8.02;3.47;;;8.20;68.10;;;;;;5017128;28;20055;-75
2023/03/14 08:56:06;;;;;;;8.73;3.40;;;8.20;68.60;;;;;;5006289;28;20071;-76
2023/03/14 08:58:33;;;;;;;5.82;3.10;;;8.20;68.60;;;;;;5016695;28;20040;-76
2023/03/14 09:00:59;;;;;;;6.18;3.30;;;8.20;69.00;;;;;;5005002;28;20037;-74
2023/03/14 09:03:25;;;;;;;5.85;3.42;;;8.30;68.80;;;;;;5018602;28;20033;-75
2023/03/14 09:05:51;;;;;;;4.60;2.90;;;8.30;69.80;;;;;;5005945;28;20401;-75
2023/03/14 09:08:18;;;;;;;5.22;3.38;;;8.30;70.80;;;;;;5009079;28;20047;-74
2023/03/14 09:10:44;;;;;;;5.68;3.28;;;8.30;71.20;;;;;;5017135;28;20030;-75
2023/03/14 09:13:10;;;;;;;7.15;3.65;;;8.40;71.80;;;;;;4988112;28;20075;-75
2023/03/14 09:15:42;;;;;;;6.15;3.42;;;8.40;71.40;;;;;;5005037;28;20057;-75
2023/03/14 09:18:10;;;;;;;4.78;2.92;;;8.40;71.30;;;;;;4970254;28;20095;-76
2023/03/14 09:20:36;;;;;;;6.75;3.30;;;8.40;70.70;;;;;;5008108;28;20515;-75
2023/03/14 09:23:02;;;;;;;4.80;2.75;;;8.50;70.50;;;;;;5015076;28;20072;-74
2023/03/14 09:25:28;;;;;;;4.15;3.13;;;8.50;70.30;;;;;;4998886;28;20041;-75
2023/03/14 09:27:54;;;;;;;5.60;3.13;;;8.60;70.00;;;;;;5015149;28;20057;-74
2023/03/14 09:30:20;;;;;;;4.50;3.45;;;8.60;69.70;;;;;;5015717;28;20107;-76
2023/03/14 09:32:46;;;;;;;4.88;2.92;;;8.60;69.00;;;;;;4999768;28;20021;-77
2023/03/14 09:35:12;;;;;;;7.57;3.38;;;8.60;68.80;;;;;;5017804;28;20038;-77
2023/03/14 09:37:38;;;;;;;6.82;3.60;;;8.60;68.80;;;;;;5018759;28;20029;-75
2023/03/14 09:40:10;;;;;;;5.90;3.20;;;8.70;68.00;;;;;;5016685;28;20029;-75
2023/03/14 09:42:39;;;;;;;4.60;3.30;;;8.70;67.90;;;;;;5016049;28;20034;-74
2023/03/14 09:45:15;;;;;;;6.50;3.47;;;8.70;67.60;;;;;;5016403;28;20043;-75
2023/03/14 09:47:42;;;;;;;7.22;3.10;;;8.80;67.40;;;;;;5018137;28;20041;-75
2023/03/14 09:50:15;;;;;;;7.13;3.38;;;8.80;67.10;;;;;;5001311;28;20033;-74
2023/03/14 09:52:49;;;;;;;5.60;3.67;;;8.80;67.30;;;;;;5014820;28;20044;-75
2023/03/14 09:55:19;;;;;;;4.53;3.30;;;8.80;67.20;;;;;;5002770;28;20042;-75
2023/03/14 09:57:48;;;;;;;5.45;3.05;;;8.90;66.90;;;;;;4998333;28;20034;-75
2023/03/14 10:00:21;;;;;;;5.70;3.00;;;8.90;66.80;;;;;;5002421;28;20534;-76
2023/03/14 10:02:55;;;;;;;5.35;3.38;;;8.90;66.60;;;;;;5016682;28;20037;-76
2023/03/14 10:05:23;;;;;;;4.10;3.22;;;9.00;66.60;;;;;;5003440;28;20037;-75
2023/03/14 10:07:50;;;;;;;4.57;2.60;;;9.00;66.40;;;;;;5014755;28;20038;-74
2023/03/14 10:10:20;;;;;;;6.78;3.35;;;9.00;66.60;;;;;;4991140;28;20856;-75
2023/03/14 10:12:54;;;;;;;7.93;3.33;;;9.00;66.20;;;;;;4975881;28;20051;-75
2023/03/14 10:15:33;;;;;;;6.40;3.30;;;9.10;66.40;;;;;;5017895;28;20181;-74
2023/03/14 10:18:01;;;;;;;6.30;3.20;;;9.10;66.40;;;;;;5020143;28;21206;-74
2023/03/14 10:20:35;;;;;;;6.28;2.90;;;9.10;66.30;;;;;;4993748;28;20045;-74
2023/03/14 10:23:07;;;;;;;5.25;3.15;;;9.10;65.90;;;;;;5002431;28;20026;-73
2023/03/14 10:25:37;;;;;;;4.45;3.13;;;9.10;65.70;;;;;;5018760;28;20056;-72
2023/03/14 10:28:04;;;;;;;5.85;3.40;;;9.20;65.90;;;;;;5018665;28;20036;-73
2023/03/14 10:30:43;;;;;;;5.35;3.33;;;9.20;66.10;;;;;;5018223;28;20132;-73
2023/03/14 10:33:19;;;;;;;7.85;3.65;;;9.20;66.30;;;;;;5019950;28;20044;-73
2023/03/14 10:35:51;;;;;;;8.73;3.70;;;9.20;66.10;;;;;;5018320;28;20065;-73
2023/03/14 10:38:18;;;;;;;4.88;3.60;;;9.30;66.00;;;;;;5018209;28;20144;-72
2023/03/14 10:40:52;;;;;;;6.47;3.28;;;9.30;66.10;;;;;;5017732;28;20038;-73
2023/03/14 10:43:26;;;;;;;7.15;3.13;;;9.30;65.80;;;;;;5017828;28;20067;-72
2023/03/14 10:45:57;;;;;;;7.63;3.08;;;9.30;66.00;;;;;;5019065;28;20091;-72
2023/03/14 10:48:37;;;;;;;6.13;3.20;;;9.30;65.70;;;;;;5019067;28;20022;-72
2023/03/14 10:51:06;;;;;;;8.77;3.30;;;9.30;65.50;;;;;;5020329;28;20412;-72
2023/03/14 10:53:59;;;;;;;5.10;3.70;;;9.40;65.40;;;;;;5001874;28;20053;-74
2023/03/14 10:56:27;;;;;;;5.78;3.40;;;9.40;65.30;;;;;;5017387;28;20034;-74
2023/03/14 10:58:57;;;;;;;4.82;3.25;;;9.40;65.30;;;;;;5018933;28;20061;-75
2023/03/14 11:01:27;;;;;;;5.07;3.33;;;9.40;65.10;;;;;;5000418;28;20034;-74
2023/03/14 11:04:15;;;;;;;8.00;3.45;;;9.50;64.90;;;;;;5007478;28;20045;-76
2023/03/14 11:06:46;;;;;;;5.28;3.42;;;9.50;65.10;;;;;;5007339;28;20076;-74
2023/03/14 11:09:36;;;;;;;4.68;2.83;;;9.50;64.80;;;;;;5004068;28;20570;-77
2023/03/14 11:12:30;;;;;;;5.53;3.20;;;9.50;64.80;;;;;;5002933;28;20029;-74
2023/03/14 11:15:04;;;;;;;5.75;3.80;;;9.60;64.60;;;;;;5018486;28;20046;-74
2023/03/14 11:18:02;;;;;;;5.03;3.13;;;9.60;64.50;;;;;;5017178;28;20034;-74
2023/03/14 11:20:47;;;;;;;5.85;3.15;;;9.60;64.50;;;;;;5006412;28;20033;-75
2023/03/14 11:23:23;;;;;;;5.95;3.33;;;9.70;65.50;;;;;;5017911;28;20034;-75
2023/03/14 11:26:09;;;;;;;6.55;2.65;;;9.70;65.00;;;;;;5016762;28;20125;-75
2023/03/14 11:28:48;;;;;;;5.30;2.90;;;9.80;65.10;;;;;;5018109;28;20095;-75
2023/03/14 11:31:28;;;;;;;3.50;2.35;;;9.80;64.80;;;;;;5018405;28;20033;-76
2023/03/14 11:34:12;;;;;;;3.35;2.60;;;9.90;64.80;;;;;;5017695;28;20042;-75
2023/03/14 11:36:43;;;;;;;4.13;2.90;;;10.00;64.50;;;;;;5016800;28;20041;-74
2023/03/14 11:39:15;;;;;;;5.00;2.58;;;10.10;64.00;;;;;;5018467;28;20045;-75
2023/03/14 11:41:45;;;;;;;3.65;2.47;;;10.10;63.60;;;;;;5007091;28;20053;-74
2023/03/14 11:44:20;;;;;;;5.35;2.97;;;10.20;63.60;;;;;;5017129;28;20492;-76
2023/03/14 11:47:01;;;;;;;5.38;3.35;;;10.30;63.50;;;;;;5016709;28;20041;-76
2023/03/14 11:49:42;;;;;;;3.97;2.70;;;10.30;62.90;;;;;;5001793;28;20064;-76
2023/03/14 11:52:20;;;;;;;3.20;2.60;;;10.40;62.20;;;;;;5016192;28;20037;-75
2023/03/14 11:54:55;;;;;;;3.47;2.30;;;10.50;62.10;;;;;;5017235;28;20562;-75
2023/03/14 11:57:22;;;;;;;4.07;3.17;;;10.50;62.00;;;;;;4998360;28;20025;-75
2023/03/14 12:00:21;;;;;;;4.80;2.92;;;10.60;61.60;;;;;;5017979;28;20021;-75
2023/03/14 12:03:23;;;;;;;5.07;2.75;;;10.60;61.20;;;;;;5017394;28;20045;-75
2023/03/14 12:06:14;;;;;;;3.10;2.55;;;10.70;61.40;;;;;;5017510;28;20072;-74
2023/03/14 12:09:03;;;;;;;5.80;2.30;;;10.80;61.40;;;;;;5005342;28;20509;-75
2023/03/14 12:11:35;;;;;;;4.78;2.28;;;10.80;60.70;;;;;;5015927;28;20037;-75
2023/03/14 12:14:02;;;;;;;3.65;2.53;;;10.80;60.60;;;;;;5015782;28;20034;-75
2023/03/14 12:16:50;;;;;;;5.15;2.83;;;10.90;60.20;;;;;;5016207;28;20045;-76
2023/03/14 12:19:19;;;;;;;3.53;2.60;;;11.00;60.20;;;;;;5002563;28;20038;-74
2023/03/14 12:21:56;;;;;;;3.95;2.40;;;11.10;58.70;;;;;;5016802;28;20136;-76
2023/03/14 12:24:26;;;;;;;3.55;2.70;;;11.10;59.20;;;;;;5015844;28;20087;-75
2023/03/14 12:26:56;;;;;;;3.80;2.58;;;11.10;59.20;;;;;;5017546;28;20064;-76
2023/03/14 12:29:23;;;;;;;4.03;2.60;;;11.20;59.70;;;;;;5016896;28;20029;-75
2023/03/14 12:32:08;;;;;;;3.40;2.45;;;11.20;59.50;;;;;;5016489;28;20037;-75
2023/03/14 12:34:42;;;;;;;4.70;2.38;;;11.20;60.40;;;;;;5016896;28;20140;-74
2023/03/14 12:37:19;;;;;;;5.53;2.55;;;11.20;60.60;;;;;;5015848;28;20527;-74
2023/03/14 12:40:09;;;;;;;3.60;2.05;;;11.30;60.90;;;;;;5016454;28;20030;-74
2023/03/14 12:42:59;;;;;;;2.30;1.67;;;11.30;61.00;;;;;;5016062;28;20042;-75
2023/03/14 12:45:31;;;;;;;3.35;2.13;;;11.30;61.30;;;;;;5017676;28;20048;-74
2023/03/14 12:48:23;;;;;;;5.22;2.00;;;11.30;61.50;;;;;;5012077;28;20099;-74
2023/03/14 12:51:02;;;;;;;3.35;1.92;;;11.30;61.60;;;;;;4998289;28;20531;-75
2023/03/14 12:53:39;;;;;;;3.67;2.10;;;11.30;61.70;;;;;;5026998;28;20136;-75
2023/03/14 12:56:23;;;;;;;4.43;2.00;;;11.20;61.70;;;;;;5012661;28;20049;-75
2023/03/14 12:59:24;;;;;;;4.45;2.10;;;11.30;62.00;;;;;;4993420;28;20400;-74
2023/03/14 13:02:08;;;;;;;3.15;2.03;;;11.30;62.10;;;;;;4919827;29;20134;-74
2023/03/14 13:04:46;;;;;;;2.92;2.00;;;11.30;62.20;;;;;;5018060;28;20452;-74
2023/03/14 13:07:32;;;;;;;2.38;1.80;;;11.30;62.40;;;;;;4993152;28;20038;-73
2023/03/14 13:10:05;;;;;;;3.83;2.05;;;11.30;62.50;;;;;;4925204;29;20042;-74
2023/03/14 13:12:55;;;;;;;4.43;2.00;;;11.30;62.70;;;;;;4929769;29;20047;-75
2023/03/14 13:15:27;;;;;;;2.45;1.73;;;11.30;62.80;;;;;;4913297;29;20461;-78
2023/03/14 13:17:58;;;;;;;3.15;1.90;;;11.30;62.90;;;;;;4930904;29;20024;-77
2023/03/14 13:21:05;;;;;;;6.22;1.70;;;11.30;66.30;;;;;;4929438;29;20035;-74